createdAt,value
2017-09-03T00:00:10.735Z,13.20
2017-09-03T00:02:37.391Z,14.23
2017-09-03T00:05:04.127Z,14.90
2017-09-03T00:07:30.599Z,14.03
2017-09-03T00:09:57.030Z,15.67
2017-09-03T00:12:23.832Z,13.40
2017-09-03T00:14:50.472Z,14.00
2017-09-03T00:17:17.519Z,14.07
2017-09-03T00:19:43.977Z,14.80
2017-09-03T00:22:10.465Z,13.30
2017-09-03T00:24:37.227Z,13.47
2017-09-03T00:27:03.671Z,12.90
2017-09-03T00:29:30.401Z,12.00
2017-09-03T00:31:56.854Z,11.10
2017-09-03T00:34:23.486Z,12.87
2017-09-03T00:36:50.217Z,11.33
2017-09-03T00:39:16.739Z,13.50
2017-09-03T00:41:43.385Z,12.47
2017-09-03T00:44:10.022Z,12.87
2017-09-03T00:46:36.659Z,13.70
2017-09-03T00:49:03.158Z,13.10
2017-09-03T00:51:29.659Z,13.43
2017-09-03T00:53:56.471Z,13.80
2017-09-03T00:56:22.911Z,14.07
2017-09-03T00:58:49.749Z,11.60
2017-09-03T01:01:16.381Z,15.60
2017-09-03T01:03:42.858Z,13.40
2017-09-03T01:06:09.555Z,14.70
2017-09-03T01:08:36.299Z,13.10
2017-09-03T01:11:02.777Z,15.60
2017-09-03T01:13:29.577Z,14.40
2017-09-03T01:15:56.311Z,15.53
2017-09-03T01:18:22.786Z,13.17
2017-09-03T01:20:49.527Z,13.13
2017-09-03T01:23:16.227Z,13.03
2017-09-03T01:25:42.685Z,12.83
2017-09-03T01:28:09.388Z,13.67
2017-09-03T01:30:36.241Z,12.40
2017-09-03T01:33:02.872Z,12.97
2017-09-03T01:35:29.300Z,12.67
2017-09-03T01:37:55.924Z,12.47
2017-09-03T01:40:22.535Z,13.13
2017-09-03T01:42:48.939Z,13.23
2017-09-03T01:45:15.522Z,13.37
2017-09-03T01:47:42.195Z,13.00
2017-09-03T01:50:08.799Z,13.83
2017-09-03T01:52:35.462Z,14.10
2017-09-03T01:55:01.890Z,15.20
2017-09-03T01:57:28.538Z,15.10
2017-09-03T01:59:54.998Z,14.60
2017-09-03T02:02:21.826Z,12.97
2017-09-03T02:04:48.287Z,12.50
2017-09-03T02:07:14.755Z,13.87
2017-09-03T02:09:41.528Z,13.50
2017-09-03T02:12:08.178Z,13.43
2017-09-03T02:14:34.904Z,12.80
2017-09-03T02:17:01.367Z,12.50
2017-09-03T02:19:28.087Z,13.07
2017-09-03T02:21:54.816Z,13.40
2017-09-03T02:24:21.296Z,12.80
2017-09-03T02:26:47.986Z,13.13
2017-09-03T02:29:14.731Z,12.00
2017-09-03T02:31:41.471Z,12.20
2017-09-03T02:34:07.975Z,11.80
2017-09-03T02:36:34.738Z,12.57
2017-09-03T02:39:01.360Z,12.20
2017-09-03T02:41:28.025Z,11.00
2017-09-03T02:43:54.810Z,12.00
2017-09-03T02:46:21.280Z,11.50
2017-09-03T02:48:47.945Z,10.60
2017-09-03T02:51:14.781Z,11.63
2017-09-03T02:53:41.277Z,11.63
2017-09-03T02:56:07.940Z,11.27
2017-09-03T02:58:34.372Z,9.80
2017-09-03T03:01:01.124Z,9.97
2017-09-03T03:03:27.758Z,11.00
2017-09-03T03:05:54.203Z,10.10
2017-09-03T03:08:20.710Z,8.70
2017-09-03T03:10:47.368Z,8.03
2017-09-03T03:13:14.007Z,8.77
2017-09-03T03:15:40.462Z,9.40
2017-09-03T03:18:07.170Z,9.90
2017-09-03T03:20:34.120Z,8.80
2017-09-03T03:23:00.587Z,9.67
2017-09-03T03:25:27.299Z,8.20
2017-09-03T03:27:53.936Z,8.23
2017-09-03T03:30:20.417Z,7.77
2017-09-03T03:35:24.905Z,6.77
2017-09-03T03:37:51.360Z,7.57
2017-09-03T03:40:18.086Z,6.60
2017-09-03T03:42:44.552Z,6.80
2017-09-03T03:45:11.007Z,7.23
2017-09-03T03:47:37.689Z,6.90
2017-09-03T03:50:04.530Z,7.13
2017-09-03T03:52:31.170Z,7.00
2017-09-03T03:54:57.628Z,6.33
2017-09-03T03:57:24.298Z,6.17
2017-09-03T03:59:50.894Z,7.20
2017-09-03T04:02:17.329Z,7.17
2017-09-03T04:04:43.776Z,7.40
2017-09-03T04:07:10.392Z,7.33
2017-09-03T04:09:36.845Z,7.17
2017-09-03T04:12:03.558Z,6.90
2017-09-03T04:14:30.200Z,8.13
2017-09-03T04:16:56.653Z,7.23
2017-09-03T04:19:23.472Z,7.80
2017-09-03T04:21:50.207Z,6.87
2017-09-03T04:24:16.667Z,6.20
2017-09-03T04:26:43.103Z,8.07
2017-09-03T04:29:09.908Z,8.40
2017-09-03T04:31:36.655Z,7.87
2017-09-03T04:34:03.108Z,6.83
2017-09-03T04:36:29.723Z,8.03
2017-09-03T04:38:56.361Z,8.00
2017-09-03T04:41:22.997Z,6.70
2017-09-03T04:43:49.450Z,6.33
2017-09-03T04:46:16.172Z,7.10
2017-09-03T04:48:42.627Z,6.07
2017-09-03T04:51:09.342Z,7.07
2017-09-03T04:53:35.820Z,5.80
2017-09-03T04:56:02.520Z,7.37
2017-09-03T04:58:29.168Z,6.20
2017-09-03T05:00:55.625Z,7.10
2017-09-03T05:03:22.332Z,8.00
2017-09-03T05:05:48.761Z,6.90
2017-09-03T05:08:15.408Z,8.73
2017-09-03T05:10:42.149Z,7.20
2017-09-03T05:13:08.748Z,6.33
2017-09-03T05:15:35.176Z,7.60
2017-09-03T05:18:01.852Z,7.00
2017-09-03T05:20:28.689Z,6.40
2017-09-03T05:22:55.114Z,6.50
2017-09-03T05:25:21.766Z,6.90
2017-09-03T05:27:48.505Z,6.60
2017-09-03T05:30:14.963Z,5.90
2017-09-03T05:32:41.394Z,6.80
2017-09-03T05:35:08.113Z,7.43
2017-09-03T05:37:34.744Z,5.93
2017-09-03T05:40:01.187Z,7.90
2017-09-03T05:42:27.820Z,6.50
2017-09-03T05:44:54.667Z,6.83
2017-09-03T05:47:21.125Z,5.50
2017-09-03T05:49:47.555Z,5.97
2017-09-03T05:52:14.269Z,5.90
2017-09-03T05:54:40.903Z,5.97
2017-09-03T05:57:07.390Z,5.57
2017-09-03T05:59:34.020Z,5.97
2017-09-03T06:02:00.462Z,7.33
2017-09-03T06:04:26.905Z,5.50
2017-09-03T06:06:53.583Z,5.50
2017-09-03T06:09:20.421Z,5.27
2017-09-03T06:11:47.119Z,5.53
2017-09-03T06:14:13.580Z,5.17
2017-09-03T06:16:40.052Z,5.50
2017-09-03T06:19:06.674Z,5.63
2017-09-03T06:21:33.308Z,5.43
2017-09-03T06:23:59.773Z,5.60
2017-09-03T06:26:26.487Z,5.80
2017-09-03T06:28:52.931Z,6.23
2017-09-03T06:31:19.649Z,5.00
2017-09-03T06:33:46.286Z,5.83
2017-09-03T06:36:13.464Z,5.93
2017-09-03T06:38:39.904Z,6.20
2017-09-03T06:41:06.515Z,5.47
2017-09-03T06:43:33.141Z,5.00
2017-09-03T06:45:59.595Z,5.17
2017-09-03T06:48:26.139Z,6.00
2017-09-03T06:50:52.961Z,5.50
2017-09-03T06:53:19.393Z,5.70
2017-09-03T06:55:45.816Z,5.57
2017-09-03T06:58:12.455Z,5.20
2017-09-03T07:00:39.098Z,5.03
2017-09-03T07:03:05.597Z,5.87
2017-09-03T07:05:32.270Z,6.07
2017-09-03T07:07:58.994Z,4.83
2017-09-03T07:10:25.457Z,5.17
2017-09-03T07:12:52.087Z,5.70
2017-09-03T07:15:18.564Z,5.10
2017-09-03T07:17:45.260Z,5.43
2017-09-03T07:20:11.696Z,4.87
2017-09-03T07:22:38.432Z,5.67
2017-09-03T07:25:04.882Z,5.80
2017-09-03T07:27:31.509Z,6.93
2017-09-03T07:29:57.974Z,6.63
2017-09-03T07:32:24.678Z,6.10
2017-09-03T07:34:51.617Z,6.57
2017-09-03T07:37:18.377Z,6.03
2017-09-03T07:39:44.876Z,7.40
2017-09-03T07:42:11.546Z,7.83
2017-09-03T07:44:38.278Z,6.60
2017-09-03T07:47:05.017Z,6.57
2017-09-03T07:49:31.652Z,7.10
2017-09-03T07:51:58.108Z,6.67
2017-09-03T07:54:24.826Z,5.73
2017-09-03T07:56:51.461Z,6.20
2017-09-03T07:59:17.951Z,7.00
2017-09-03T08:01:44.485Z,7.17
2017-09-03T08:04:11.195Z,5.90
2017-09-03T08:06:38.453Z,6.20
2017-09-03T08:09:05.199Z,5.73
2017-09-03T08:11:31.631Z,5.50
2017-09-03T08:13:58.338Z,5.90
2017-09-03T08:16:24.807Z,5.70
2017-09-03T08:18:51.520Z,5.90
2017-09-03T08:21:17.975Z,5.50
2017-09-03T08:23:44.416Z,5.80
2017-09-03T08:26:11.056Z,4.40
2017-09-03T08:28:37.527Z,5.63
2017-09-03T08:31:03.984Z,5.57
2017-09-03T08:33:30.723Z,5.40
2017-09-03T08:35:57.568Z,4.63
2017-09-03T08:38:24.003Z,4.80
2017-09-03T08:40:50.471Z,4.87
2017-09-03T08:43:17.281Z,4.80
2017-09-03T08:45:43.767Z,5.67
2017-09-03T08:48:10.457Z,4.97
2017-09-03T08:50:37.078Z,5.27
2017-09-03T08:53:03.520Z,5.77
2017-09-03T08:55:30.239Z,5.40
2017-09-03T08:57:56.899Z,5.23
2017-09-03T09:00:23.339Z,5.47
2017-09-03T09:02:50.071Z,5.80
2017-09-03T09:05:16.516Z,5.33
2017-09-03T09:07:43.245Z,5.43
2017-09-03T09:10:09.989Z,5.10
2017-09-03T09:12:36.421Z,5.37
2017-09-03T09:15:03.165Z,5.60
2017-09-03T09:17:29.795Z,4.80
2017-09-03T09:19:56.280Z,6.30
2017-09-03T09:22:22.909Z,5.30
2017-09-03T09:24:49.705Z,6.07
2017-09-03T09:27:17.058Z,5.70
2017-09-03T09:29:43.701Z,4.90
2017-09-03T09:32:10.151Z,5.80
2017-09-03T09:34:36.873Z,5.43
2017-09-03T09:37:03.481Z,4.20
2017-09-03T09:39:30.149Z,4.53
2017-09-03T09:41:56.789Z,5.90
2017-09-03T09:44:23.250Z,5.97
2017-09-03T09:46:49.727Z,5.80
2017-09-03T09:49:16.504Z,7.33
2017-09-03T09:51:43.054Z,4.87
2017-09-03T09:54:09.783Z,4.80
2017-09-03T09:56:36.440Z,4.40
2017-09-03T09:59:02.965Z,5.27
2017-09-03T10:01:29.403Z,5.17
2017-09-03T10:03:56.051Z,5.07
2017-09-03T10:06:22.492Z,5.73
2017-09-03T10:08:49.193Z,5.07
2017-09-03T10:11:15.826Z,3.40
2017-09-03T10:13:42.260Z,3.57
2017-09-03T10:16:09.009Z,3.77
2017-09-03T10:18:35.664Z,3.40
2017-09-03T10:21:02.101Z,4.50
2017-09-03T10:23:28.524Z,3.23
2017-09-03T10:25:55.168Z,4.83
2017-09-03T10:28:21.785Z,5.17
2017-09-03T10:30:48.239Z,5.60
2017-09-03T10:33:14.952Z,5.23
2017-09-03T10:35:41.445Z,3.70
2017-09-03T10:38:08.134Z,3.40
2017-09-03T10:40:34.599Z,3.70
2017-09-03T10:43:01.403Z,4.00
2017-09-03T10:45:28.696Z,6.13
2017-09-03T10:47:55.154Z,4.83
2017-09-03T10:50:21.929Z,5.70
2017-09-03T10:52:48.665Z,5.23
2017-09-03T10:55:15.413Z,6.37
2017-09-03T10:57:42.699Z,15.13
2017-09-03T11:00:09.404Z,9.20
2017-09-03T11:02:36.142Z,6.17
2017-09-03T11:05:02.777Z,6.07
2017-09-03T11:07:29.395Z,5.63
2017-09-03T11:09:56.608Z,5.63
2017-09-03T11:12:23.081Z,6.60
2017-09-03T11:14:49.743Z,5.50
2017-09-03T11:17:16.195Z,5.33
2017-09-03T11:19:42.923Z,6.43
2017-09-03T11:22:09.560Z,6.00
2017-09-03T11:24:36.388Z,5.20
2017-09-03T11:27:03.152Z,5.63
2017-09-03T11:29:30.012Z,5.57
2017-09-03T11:31:56.718Z,5.70
2017-09-03T11:34:23.567Z,5.60
2017-09-03T11:36:50.033Z,5.23
2017-09-03T11:39:16.706Z,4.20
2017-09-03T11:41:44.106Z,5.83
2017-09-03T11:44:10.573Z,5.10
2017-09-03T11:46:37.224Z,4.70
2017-09-03T11:49:03.900Z,4.03
2017-09-03T11:51:30.365Z,4.10
2017-09-03T11:53:57.035Z,4.43
2017-09-03T11:56:23.486Z,5.37
2017-09-03T11:58:49.915Z,3.50
2017-09-03T12:01:16.575Z,4.00
2017-09-03T12:03:43.415Z,4.30
2017-09-03T12:06:09.873Z,3.43
2017-09-03T12:08:36.334Z,3.53
2017-09-03T12:11:03.031Z,3.40
2017-09-03T12:13:29.664Z,3.30
2017-09-03T12:15:56.299Z,3.90
2017-09-03T12:18:22.749Z,3.87
2017-09-03T12:20:49.377Z,3.17
2017-09-03T12:23:16.068Z,3.27
2017-09-03T12:25:42.494Z,3.47
2017-09-03T12:28:09.187Z,3.70
2017-09-03T12:30:35.823Z,3.90
2017-09-03T12:33:02.571Z,3.90
2017-09-03T12:35:29.311Z,4.67
2017-09-03T12:37:56.042Z,3.60
2017-09-03T12:40:22.511Z,4.13
2017-09-03T12:42:48.958Z,4.50
2017-09-03T12:45:15.647Z,4.23
2017-09-03T12:47:42.116Z,3.90
2017-09-03T12:50:08.931Z,3.70
2017-09-03T12:52:35.467Z,4.07
2017-09-03T12:55:01.951Z,4.07
2017-09-03T12:57:28.650Z,3.77
2017-09-03T12:59:55.384Z,4.63
2017-09-03T13:02:22.053Z,3.70
2017-09-03T13:04:48.753Z,3.70
2017-09-03T13:07:15.214Z,3.97
2017-09-03T13:09:41.940Z,2.63
2017-09-03T13:12:08.669Z,3.83
2017-09-03T13:14:35.137Z,3.97
2017-09-03T13:17:01.953Z,3.90
2017-09-03T13:19:28.683Z,2.97
2017-09-03T13:21:55.316Z,3.87
2017-09-03T13:24:21.837Z,3.50
2017-09-03T13:26:48.603Z,3.63
2017-09-03T13:29:16.263Z,3.30
2017-09-03T13:31:42.723Z,3.80
2017-09-03T13:34:09.250Z,3.90
2017-09-03T13:36:35.968Z,3.30
2017-09-03T13:39:02.704Z,3.20
2017-09-03T13:41:29.446Z,3.20
2017-09-03T13:43:56.087Z,2.70
2017-09-03T13:46:22.731Z,3.50
2017-09-03T13:48:49.213Z,3.83
2017-09-03T13:51:15.834Z,4.30
2017-09-03T13:53:42.537Z,3.83
2017-09-03T13:56:09.283Z,3.47
2017-09-03T13:58:35.737Z,3.90
2017-09-03T14:01:02.456Z,4.07
2017-09-03T14:03:28.943Z,4.20
2017-09-03T14:05:55.433Z,3.13
2017-09-03T14:08:22.159Z,4.20
2017-09-03T14:10:49.557Z,3.60
2017-09-03T14:13:16.024Z,3.53
2017-09-03T14:15:43.490Z,3.90
2017-09-03T14:18:09.930Z,4.20
2017-09-03T14:20:36.778Z,3.70
2017-09-03T14:23:03.551Z,3.40
2017-09-03T14:25:30.029Z,3.33
2017-09-03T14:27:57.515Z,3.63
2017-09-03T14:30:23.955Z,3.23
2017-09-03T14:32:50.395Z,3.57
2017-09-03T14:35:17.015Z,3.80
2017-09-03T14:37:43.654Z,4.17
2017-09-03T14:40:10.404Z,3.87
2017-09-03T14:42:36.846Z,3.63
2017-09-03T14:45:03.315Z,4.10
2017-09-03T14:47:30.003Z,3.63
2017-09-03T14:49:56.656Z,3.83
2017-09-03T14:52:23.146Z,3.60
2017-09-03T14:54:49.580Z,4.03
2017-09-03T14:57:16.347Z,3.73
2017-09-03T14:59:42.938Z,3.80
2017-09-03T15:02:09.627Z,4.53
2017-09-03T15:04:36.069Z,4.23
2017-09-03T15:07:02.808Z,4.37
2017-09-03T15:09:29.270Z,4.20
2017-09-03T15:11:56.080Z,4.40
2017-09-03T15:14:22.545Z,4.37
2017-09-03T15:16:49.352Z,4.50
2017-09-03T15:19:15.984Z,4.87
2017-09-03T15:21:42.448Z,4.63
2017-09-03T15:24:08.939Z,4.73
2017-09-03T15:26:35.596Z,5.43
2017-09-03T15:29:02.332Z,5.70
2017-09-03T15:31:28.785Z,5.40
2017-09-03T15:33:55.220Z,5.70
2017-09-03T15:36:21.939Z,5.47
2017-09-03T15:38:48.583Z,5.53
2017-09-03T15:41:15.073Z,4.93
2017-09-03T15:43:44.721Z,5.40
2017-09-03T15:46:24.046Z,4.73
2017-09-03T15:48:50.795Z,4.80
2017-09-03T15:51:17.235Z,4.97
2017-09-03T15:53:43.980Z,5.60
2017-09-03T15:56:10.760Z,5.70
2017-09-03T15:58:37.205Z,4.60
2017-09-03T16:01:04.092Z,4.93
2017-09-03T16:03:31.675Z,5.17
2017-09-03T16:05:58.111Z,4.80
2017-09-03T16:08:24.828Z,4.77
2017-09-03T16:10:51.468Z,4.80
2017-09-03T16:13:17.953Z,4.10
2017-09-03T16:15:44.735Z,4.10
2017-09-03T16:18:11.469Z,4.30
2017-09-03T16:20:37.907Z,4.43
2017-09-03T16:23:04.656Z,4.30
2017-09-03T16:25:31.109Z,3.70
2017-09-03T16:27:57.737Z,4.23
2017-09-03T16:30:24.225Z,3.57
2017-09-03T16:32:50.871Z,3.87
2017-09-03T16:35:17.535Z,3.47
2017-09-03T16:37:43.998Z,3.40
2017-09-03T16:40:10.440Z,3.50
2017-09-03T16:42:37.142Z,4.10
2017-09-03T16:45:03.974Z,3.57
2017-09-03T16:47:30.463Z,3.33
2017-09-03T16:49:57.250Z,3.57
2017-09-03T16:52:27.988Z,3.60
2017-09-03T16:54:54.475Z,3.60
2017-09-03T16:57:21.263Z,3.20
2017-09-03T16:59:48.003Z,3.47
2017-09-03T17:02:14.513Z,3.40
2017-09-03T17:04:42.201Z,3.10
2017-09-03T17:07:08.884Z,3.47
2017-09-03T17:09:35.581Z,3.40
2017-09-03T17:12:02.538Z,3.70
2017-09-03T17:14:29.037Z,3.17
2017-09-03T17:16:55.694Z,2.67
2017-09-03T17:19:22.369Z,3.13
2017-09-03T17:21:48.884Z,3.13
2017-09-03T17:24:15.569Z,3.23
2017-09-03T17:26:42.254Z,3.97
2017-09-03T17:29:09.016Z,3.60
2017-09-03T17:31:36.394Z,3.40
2017-09-03T17:34:03.085Z,3.53
2017-09-03T17:36:31.876Z,3.40
2017-09-03T17:39:01.176Z,3.27
2017-09-03T17:41:27.986Z,3.13
2017-09-03T17:43:57.638Z,3.20
2017-09-03T17:46:24.365Z,3.80
2017-09-03T17:48:51.104Z,4.33
2017-09-03T17:51:17.576Z,5.20
2017-09-03T17:53:44.286Z,5.13
2017-09-03T17:56:10.813Z,6.70
2017-09-03T17:58:37.279Z,7.50
2017-09-03T18:01:03.971Z,8.37
2017-09-03T18:03:30.467Z,7.50
2017-09-03T18:05:57.160Z,7.90
2017-09-03T18:08:23.799Z,7.20
2017-09-03T18:10:50.435Z,7.77
2017-09-03T18:13:16.918Z,8.10
2017-09-03T18:15:43.431Z,7.40
2017-09-03T18:18:10.080Z,7.03
2017-09-03T18:20:36.782Z,7.63
2017-09-03T18:23:03.261Z,6.70
2017-09-03T18:25:30.168Z,7.37
2017-09-03T18:27:56.653Z,6.67
2017-09-03T18:30:26.037Z,6.83
2017-09-03T18:32:52.703Z,7.60
2017-09-03T18:35:20.398Z,7.10
2017-09-03T18:37:52.672Z,7.83
2017-09-03T18:40:30.257Z,8.00
2017-09-03T18:42:58.841Z,7.17
2017-09-03T18:45:25.338Z,7.50
2017-09-03T18:47:51.851Z,6.93
2017-09-03T18:50:21.523Z,6.57
2017-09-03T18:52:48.008Z,6.70
2017-09-03T18:55:14.822Z,5.83
2017-09-03T18:57:42.382Z,7.53
2017-09-03T19:00:11.955Z,6.47
2017-09-03T19:02:42.290Z,6.60
2017-09-03T19:05:10.530Z,5.60
2017-09-03T19:07:37.982Z,6.90
2017-09-03T19:10:04.705Z,6.17
2017-09-03T19:12:31.486Z,7.03
2017-09-03T19:14:58.143Z,5.23
2017-09-03T19:17:24.882Z,6.07
2017-09-03T19:19:51.741Z,5.53
2017-09-03T19:22:18.261Z,5.50
2017-09-03T19:24:45.556Z,7.30
2017-09-03T19:27:12.047Z,6.50
2017-09-03T19:29:38.844Z,7.50
2017-09-03T19:32:05.521Z,6.20
2017-09-03T19:34:32.024Z,5.80
2017-09-03T19:36:58.807Z,4.70
2017-09-03T19:39:25.547Z,5.10
2017-09-03T19:41:52.293Z,5.30
2017-09-03T19:44:19.027Z,5.60
2017-09-03T19:46:45.897Z,5.57
2017-09-03T19:49:12.354Z,5.63
2017-09-03T19:51:39.041Z,5.80
2017-09-03T19:54:05.680Z,5.50
2017-09-03T19:56:32.422Z,6.13
2017-09-03T19:58:58.882Z,5.43
2017-09-03T20:01:25.323Z,5.00
2017-09-03T20:03:52.026Z,5.80
2017-09-03T20:06:18.498Z,4.63
2017-09-03T20:08:45.271Z,5.43
2017-09-03T20:11:11.715Z,5.40
2017-09-03T20:13:38.168Z,4.97
2017-09-03T20:16:04.919Z,4.60
2017-09-03T20:18:31.849Z,5.67
2017-09-03T20:20:58.586Z,5.60
2017-09-03T20:23:25.021Z,5.77
2017-09-03T20:25:51.666Z,5.10
2017-09-03T20:28:18.126Z,5.20
2017-09-03T20:30:44.835Z,5.20
2017-09-03T20:33:11.283Z,5.60
2017-09-03T20:35:38.008Z,4.90
2017-09-03T20:38:11.255Z,4.90
2017-09-03T20:40:37.961Z,5.47
2017-09-03T20:43:04.411Z,5.13
2017-09-03T20:45:30.851Z,5.47
2017-09-03T20:47:57.542Z,5.30
2017-09-03T20:50:24.297Z,5.53
2017-09-03T20:52:50.763Z,6.00
2017-09-03T20:55:17.225Z,5.33
2017-09-03T20:57:44.570Z,6.07
2017-09-03T21:00:11.345Z,5.27
2017-09-03T21:02:37.816Z,5.37
2017-09-03T21:05:04.296Z,5.03
2017-09-03T21:07:31.802Z,6.00
2017-09-03T21:09:58.244Z,5.87
2017-09-03T21:12:25.058Z,5.03
2017-09-03T21:14:51.694Z,5.77
2017-09-03T21:17:18.430Z,5.60
2017-09-03T21:19:44.870Z,5.57
2017-09-03T21:22:11.501Z,5.80
2017-09-03T21:24:38.244Z,5.73
2017-09-03T21:27:04.695Z,5.70
2017-09-03T21:29:31.312Z,6.30
2017-09-03T21:31:57.761Z,5.13
2017-09-03T21:34:24.484Z,5.90
2017-09-03T21:36:51.222Z,5.70
2017-09-03T21:39:17.817Z,5.83
2017-09-03T21:41:44.256Z,6.23
2017-09-03T21:44:10.926Z,6.00
2017-09-03T21:46:37.534Z,5.33
2017-09-03T21:49:03.987Z,5.10
2017-09-03T21:51:30.601Z,5.77
2017-09-03T21:53:57.277Z,5.83
2017-09-03T21:56:23.741Z,5.90
2017-09-03T21:58:50.554Z,6.57
2017-09-03T22:01:17.009Z,19.97
2017-09-03T22:03:43.731Z,5.77
2017-09-03T22:06:10.468Z,6.00
2017-09-03T22:08:36.981Z,6.80
2017-09-03T22:11:03.439Z,7.53
2017-09-03T22:13:30.174Z,6.77
2017-09-03T22:15:57.021Z,7.17
2017-09-03T22:18:23.474Z,6.93
2017-09-03T22:20:49.906Z,6.40
2017-09-03T22:23:16.555Z,5.93
2017-09-03T22:25:43.363Z,6.87
2017-09-03T22:28:10.118Z,7.17
2017-09-03T22:30:36.849Z,6.83
2017-09-03T22:33:03.259Z,6.07
2017-09-03T22:35:30.455Z,6.73
2017-09-03T22:37:57.170Z,6.93
2017-09-03T22:40:23.804Z,6.17
2017-09-03T22:42:50.420Z,6.73
2017-09-03T22:45:16.857Z,6.43
2017-09-03T22:47:43.467Z,6.70
2017-09-03T22:50:10.259Z,6.70
2017-09-03T22:52:36.688Z,6.00
2017-09-03T22:55:03.120Z,6.17
2017-09-03T22:57:29.758Z,6.73
2017-09-03T22:59:56.191Z,5.43
2017-09-03T23:02:22.827Z,6.40
2017-09-03T23:04:49.563Z,6.13
2017-09-03T23:07:16.201Z,7.60
2017-09-03T23:09:42.641Z,6.73
2017-09-03T23:12:09.558Z,5.80
2017-09-03T23:14:36.192Z,5.67
2017-09-03T23:17:02.646Z,6.20
2017-09-03T23:19:29.098Z,6.53
2017-09-03T23:21:55.832Z,6.43
2017-09-03T23:24:22.275Z,6.03
2017-09-03T23:26:48.705Z,5.97
2017-09-03T23:29:15.342Z,7.00
2017-09-03T23:31:42.077Z,6.97
2017-09-03T23:34:08.505Z,5.80
2017-09-03T23:36:35.014Z,6.33
2017-09-03T23:39:01.625Z,6.77
2017-09-03T23:41:28.323Z,6.33
2017-09-03T23:43:54.804Z,7.40
2017-09-03T23:46:21.432Z,6.60
2017-09-03T23:48:48.136Z,6.50
2017-09-03T23:51:14.580Z,7.20
2017-09-03T23:53:41.020Z,7.53
2017-09-03T23:56:07.731Z,6.50
2017-09-03T23:58:34.365Z,6.80
